sensor_id;sensor_type;location;lat;lon;timestamp;temperature;humidity
11647;DHT22;5880;52.342;9.662;2022-07-29T00:00:00;21.60;33.30
11647;DHT22;5880;52.342;9.662;2022-07-29T00:02:27;21.60;33.30
11647;DHT22;5880;52.342;9.662;2022-07-29T00:04:53;21.60;33.50
11647;DHT22;5880;52.342;9.662;2022-07-29T00:07:19;21.60;33.40
11647;DHT22;5880;52.342;9.662;2022-07-29T00:09:45;21.60;33.40
11647;DHT22;5880;52.342;9.662;2022-07-29T00:12:11;21.60;33.40
11647;DHT22;5880;52.342;9.662;2022-07-29T00:14:36;21.60;33.50
11647;DHT22;5880;52.342;9.662;2022-07-29T00:17:02;21.60;33.50
11647;DHT22;5880;52.342;9.662;2022-07-29T00:19:28;21.60;33.50
11647;DHT22;5880;52.342;9.662;2022-07-29T00:21:53;21.60;33.60
11647;DHT22;5880;52.342;9.662;2022-07-29T00:24:19;21.60;33.60
11647;DHT22;5880;52.342;9.662;2022-07-29T00:26:45;21.60;33.60
11647;DHT22;5880;52.342;9.662;2022-07-29T00:29:10;21.60;33.60
11647;DHT22;5880;52.342;9.662;2022-07-29T00:31:36;21.60;33.60
11647;DHT22;5880;52.342;9.662;2022-07-29T00:34:02;21.60;33.70
11647;DHT22;5880;52.342;9.662;2022-07-29T00:36:28;21.60;33.60
11647;DHT22;5880;52.342;9.662;2022-07-29T00:38:54;21.60;33.70
11647;DHT22;5880;52.342;9.662;2022-07-29T00:41:19;21.60;33.70
11647;DHT22;5880;52.342;9.662;2022-07-29T00:43:45;21.60;33.80
11647;DHT22;5880;52.342;9.662;2022-07-29T00:46:11;21.60;33.80
11647;DHT22;5880;52.342;9.662;2022-07-29T00:48:38;21.50;33.90
11647;DHT22;5880;52.342;9.662;2022-07-29T00:51:04;21.50;34.10
11647;DHT22;5880;52.342;9.662;2022-07-29T00:53:34;21.90;34.20
11647;DHT22;5880;52.342;9.662;2022-07-29T00:56:01;21.50;34.10
11647;DHT22;5880;52.342;9.662;2022-07-29T00:58:27;21.50;34.00
11647;DHT22;5880;52.342;9.662;2022-07-29T01:00:53;21.50;34.00
11647;DHT22;5880;52.342;9.662;2022-07-29T01:03:19;21.50;34.00
11647;DHT22;5880;52.342;9.662;2022-07-29T01:05:45;21.50;34.10
11647;DHT22;5880;52.342;9.662;2022-07-29T01:08:13;21.50;34.20
11647;DHT22;5880;52.342;9.662;2022-07-29T01:10:41;21.50;34.10
11647;DHT22;5880;52.342;9.662;2022-07-29T01:13:09;21.40;34.00
11647;DHT22;5880;52.342;9.662;2022-07-29T01:15:56;21.40;34.00
11647;DHT22;5880;52.342;9.662;2022-07-29T01:18:31;21.40;34.30
11647;DHT22;5880;52.342;9.662;2022-07-29T01:21:21;21.40;34.20
11647;DHT22;5880;52.342;9.662;2022-07-29T01:24:07;21.40;34.40
11647;DHT22;5880;52.342;9.662;2022-07-29T01:26:54;21.30;34.30
11647;DHT22;5880;52.342;9.662;2022-07-29T01:29:41;21.30;34.30
11647;DHT22;5880;52.342;9.662;2022-07-29T01:32:12;21.30;34.30
11647;DHT22;5880;52.342;9.662;2022-07-29T01:37:50;21.20;34.40
11647;DHT22;5880;52.342;9.662;2022-07-29T01:40:45;21.20;34.40
11647;DHT22;5880;52.342;9.662;2022-07-29T01:43:17;21.10;34.60
11647;DHT22;5880;52.342;9.662;2022-07-29T01:45:48;21.10;34.40
11647;DHT22;5880;52.342;9.662;2022-07-29T01:48:44;21.10;34.60
11647;DHT22;5880;52.342;9.662;2022-07-29T01:51:21;21.10;34.90
11647;DHT22;5880;52.342;9.662;2022-07-29T01:56:59;21.00;34.70
11647;DHT22;5880;52.342;9.662;2022-07-29T01:59:26;21.00;34.60
11647;DHT22;5880;52.342;9.662;2022-07-29T02:01:55;21.00;34.70
11647;DHT22;5880;52.342;9.662;2022-07-29T02:04:24;20.90;34.80
11647;DHT22;5880;52.342;9.662;2022-07-29T02:06:54;20.90;34.90
11647;DHT22;5880;52.342;9.662;2022-07-29T02:09:24;20.90;35.00
11647;DHT22;5880;52.342;9.662;2022-07-29T02:11:53;20.80;34.90
11647;DHT22;5880;52.342;9.662;2022-07-29T02:14:22;20.80;35.00
11647;DHT22;5880;52.342;9.662;2022-07-29T02:16:51;20.80;35.00
11647;DHT22;5880;52.342;9.662;2022-07-29T02:19:21;20.80;35.10
11647;DHT22;5880;52.342;9.662;2022-07-29T02:21:51;20.80;35.20
11647;DHT22;5880;52.342;9.662;2022-07-29T02:24:19;20.70;35.20
11647;DHT22;5880;52.342;9.662;2022-07-29T02:26:49;20.70;35.90
11647;DHT22;5880;52.342;9.662;2022-07-29T02:29:19;20.70;35.30
11647;DHT22;5880;52.342;9.662;2022-07-29T02:31:49;20.70;35.40
11647;DHT22;5880;52.342;9.662;2022-07-29T02:34:17;20.60;35.30
11647;DHT22;5880;52.342;9.662;2022-07-29T02:36:45;20.60;35.30
11647;DHT22;5880;52.342;9.662;2022-07-29T02:39:11;20.60;35.40
11647;DHT22;5880;52.342;9.662;2022-07-29T02:41:55;20.60;35.40
11647;DHT22;5880;52.342;9.662;2022-07-29T02:44:27;20.60;35.80
11647;DHT22;5880;52.342;9.662;2022-07-29T02:49:55;20.60;36.00
11647;DHT22;5880;52.342;9.662;2022-07-29T02:52:37;20.50;35.70
11647;DHT22;5880;52.342;9.662;2022-07-29T02:55:31;20.50;35.90
11647;DHT22;5880;52.342;9.662;2022-07-29T02:58:15;20.40;35.90
11647;DHT22;5880;52.342;9.662;2022-07-29T03:00:55;20.40;35.80
11647;DHT22;5880;52.342;9.662;2022-07-29T03:03:25;20.40;35.60
11647;DHT22;5880;52.342;9.662;2022-07-29T03:05:57;20.40;35.80
11647;DHT22;5880;52.342;9.662;2022-07-29T03:08:26;20.40;35.90
11647;DHT22;5880;52.342;9.662;2022-07-29T03:10:53;20.40;36.00
11647;DHT22;5880;52.342;9.662;2022-07-29T03:13:20;20.60;36.10
11647;DHT22;5880;52.342;9.662;2022-07-29T03:15:47;20.30;36.00
11647;DHT22;5880;52.342;9.662;2022-07-29T03:18:14;20.30;36.10
11647;DHT22;5880;52.342;9.662;2022-07-29T03:20:40;20.30;36.10
11647;DHT22;5880;52.342;9.662;2022-07-29T03:23:08;20.40;36.20
11647;DHT22;5880;52.342;9.662;2022-07-29T03:25:34;20.30;36.30
11647;DHT22;5880;52.342;9.662;2022-07-29T03:28:00;20.30;36.30
11647;DHT22;5880;52.342;9.662;2022-07-29T03:30:26;20.30;36.30
11647;DHT22;5880;52.342;9.662;2022-07-29T03:32:52;20.30;36.30
11647;DHT22;5880;52.342;9.662;2022-07-29T03:35:19;20.30;36.40
11647;DHT22;5880;52.342;9.662;2022-07-29T03:37:45;20.30;36.40
11647;DHT22;5880;52.342;9.662;2022-07-29T03:40:16;20.30;36.40
11647;DHT22;5880;52.342;9.662;2022-07-29T03:42:45;20.30;36.50
11647;DHT22;5880;52.342;9.662;2022-07-29T03:45:15;20.20;36.30
11647;DHT22;5880;52.342;9.662;2022-07-29T03:47:47;20.20;36.40
11647;DHT22;5880;52.342;9.662;2022-07-29T03:50:16;20.20;36.50
11647;DHT22;5880;52.342;9.662;2022-07-29T03:52:45;20.20;36.40
11647;DHT22;5880;52.342;9.662;2022-07-29T03:55:10;20.20;36.40
11647;DHT22;5880;52.342;9.662;2022-07-29T03:57:38;20.20;36.50
11647;DHT22;5880;52.342;9.662;2022-07-29T04:00:06;20.10;36.60
11647;DHT22;5880;52.342;9.662;2022-07-29T04:02:32;20.10;36.60
11647;DHT22;5880;52.342;9.662;2022-07-29T04:04:58;20.10;36.60
11647;DHT22;5880;52.342;9.662;2022-07-29T04:07:24;20.10;36.70
11647;DHT22;5880;52.342;9.662;2022-07-29T04:09:50;20.10;36.80
11647;DHT22;5880;52.342;9.662;2022-07-29T04:12:16;20.00;36.70
11647;DHT22;5880;52.342;9.662;2022-07-29T04:14:42;20.10;36.80
11647;DHT22;5880;52.342;9.662;2022-07-29T04:17:07;20.00;36.80
11647;DHT22;5880;52.342;9.662;2022-07-29T04:19:33;20.00;36.90
11647;DHT22;5880;52.342;9.662;2022-07-29T04:21:59;20.00;37.10
11647;DHT22;5880;52.342;9.662;2022-07-29T04:24:26;20.00;37.00
11647;DHT22;5880;52.342;9.662;2022-07-29T04:26:52;20.00;37.10
11647;DHT22;5880;52.342;9.662;2022-07-29T04:29:17;20.00;37.00
11647;DHT22;5880;52.342;9.662;2022-07-29T04:31:43;20.00;37.20
11647;DHT22;5880;52.342;9.662;2022-07-29T04:34:09;20.00;37.10
11647;DHT22;5880;52.342;9.662;2022-07-29T04:36:36;20.00;37.50
11647;DHT22;5880;52.342;9.662;2022-07-29T04:39:02;20.00;37.50
11647;DHT22;5880;52.342;9.662;2022-07-29T04:41:28;20.00;37.40
11647;DHT22;5880;52.342;9.662;2022-07-29T04:43:54;19.90;37.60
11647;DHT22;5880;52.342;9.662;2022-07-29T04:46:20;19.90;37.50
11647;DHT22;5880;52.342;9.662;2022-07-29T04:48:47;19.90;37.50
11647;DHT22;5880;52.342;9.662;2022-07-29T04:51:16;19.90;37.60
11647;DHT22;5880;52.342;9.662;2022-07-29T04:53:42;19.90;37.60
11647;DHT22;5880;52.342;9.662;2022-07-29T04:56:08;19.90;37.70
11647;DHT22;5880;52.342;9.662;2022-07-29T04:58:34;19.90;37.80
11647;DHT22;5880;52.342;9.662;2022-07-29T05:01:01;19.90;37.80
11647;DHT22;5880;52.342;9.662;2022-07-29T05:03:27;19.80;37.70
11647;DHT22;5880;52.342;9.662;2022-07-29T05:05:52;19.80;37.80
11647;DHT22;5880;52.342;9.662;2022-07-29T05:08:18;19.80;37.90
11647;DHT22;5880;52.342;9.662;2022-07-29T05:10:44;19.80;37.90
11647;DHT22;5880;52.342;9.662;2022-07-29T05:13:10;19.90;38.20
11647;DHT22;5880;52.342;9.662;2022-07-29T05:15:36;19.80;38.20
11647;DHT22;5880;52.342;9.662;2022-07-29T05:18:03;19.90;38.30
11647;DHT22;5880;52.342;9.662;2022-07-29T05:20:30;19.90;38.30
11647;DHT22;5880;52.342;9.662;2022-07-29T05:22:57;19.90;38.30
11647;DHT22;5880;52.342;9.662;2022-07-29T05:25:25;19.90;38.50
11647;DHT22;5880;52.342;9.662;2022-07-29T05:27:52;19.90;38.40
11647;DHT22;5880;52.342;9.662;2022-07-29T05:30:18;19.80;38.40
11647;DHT22;5880;52.342;9.662;2022-07-29T05:32:44;19.90;39.10
11647;DHT22;5880;52.342;9.662;2022-07-29T05:35:09;20.10;38.60
11647;DHT22;5880;52.342;9.662;2022-07-29T05:37:35;19.90;38.80
11647;DHT22;5880;52.342;9.662;2022-07-29T05:40:02;19.90;38.60
11647;DHT22;5880;52.342;9.662;2022-07-29T05:42:28;20.00;38.60
11647;DHT22;5880;52.342;9.662;2022-07-29T05:44:54;19.90;38.70
11647;DHT22;5880;52.342;9.662;2022-07-29T05:47:21;20.00;38.80
11647;DHT22;5880;52.342;9.662;2022-07-29T05:49:47;20.00;38.90
11647;DHT22;5880;52.342;9.662;2022-07-29T05:52:13;20.00;38.90
11647;DHT22;5880;52.342;9.662;2022-07-29T05:54:39;20.00;39.00
11647;DHT22;5880;52.342;9.662;2022-07-29T05:57:05;20.00;38.90
11647;DHT22;5880;52.342;9.662;2022-07-29T05:59:35;20.00;38.90
11647;DHT22;5880;52.342;9.662;2022-07-29T06:02:01;20.00;38.90
11647;DHT22;5880;52.342;9.662;2022-07-29T06:04:28;20.00;39.00
11647;DHT22;5880;52.342;9.662;2022-07-29T06:06:53;20.10;39.00
11647;DHT22;5880;52.342;9.662;2022-07-29T06:09:19;20.10;39.10
11647;DHT22;5880;52.342;9.662;2022-07-29T06:11:44;20.20;39.20
11647;DHT22;5880;52.342;9.662;2022-07-29T06:14:10;20.10;39.20
11647;DHT22;5880;52.342;9.662;2022-07-29T06:16:36;20.20;39.30
11647;DHT22;5880;52.342;9.662;2022-07-29T06:19:02;20.20;39.40
11647;DHT22;5880;52.342;9.662;2022-07-29T06:21:27;20.20;39.50
11647;DHT22;5880;52.342;9.662;2022-07-29T06:23:53;20.20;39.50
11647;DHT22;5880;52.342;9.662;2022-07-29T06:26:19;20.30;39.40
11647;DHT22;5880;52.342;9.662;2022-07-29T06:28:44;20.40;39.60
11647;DHT22;5880;52.342;9.662;2022-07-29T06:31:10;20.40;39.70
11647;DHT22;5880;52.342;9.662;2022-07-29T06:33:35;20.40;39.80
11647;DHT22;5880;52.342;9.662;2022-07-29T06:36:04;20.50;39.70
11647;DHT22;5880;52.342;9.662;2022-07-29T06:38:31;20.60;39.90
11647;DHT22;5880;52.342;9.662;2022-07-29T06:40:58;20.70;40.00
11647;DHT22;5880;52.342;9.662;2022-07-29T06:43:36;20.70;39.90
11647;DHT22;5880;52.342;9.662;2022-07-29T06:46:16;20.80;40.40
11647;DHT22;5880;52.342;9.662;2022-07-29T06:48:43;20.90;40.50
11647;DHT22;5880;52.342;9.662;2022-07-29T06:51:10;20.90;39.70
11647;DHT22;5880;52.342;9.662;2022-07-29T06:53:37;21.00;39.70
11647;DHT22;5880;52.342;9.662;2022-07-29T06:56:05;21.00;40.30
11647;DHT22;5880;52.342;9.662;2022-07-29T06:58:33;21.20;39.60
11647;DHT22;5880;52.342;9.662;2022-07-29T07:01:02;21.20;39.50
11647;DHT22;5880;52.342;9.662;2022-07-29T07:03:29;21.20;39.40
11647;DHT22;5880;52.342;9.662;2022-07-29T07:05:55;21.30;39.40
11647;DHT22;5880;52.342;9.662;2022-07-29T07:08:22;21.30;39.40
11647;DHT22;5880;52.342;9.662;2022-07-29T07:10:49;21.50;39.40
11647;DHT22;5880;52.342;9.662;2022-07-29T07:13:18;21.40;39.30
11647;DHT22;5880;52.342;9.662;2022-07-29T07:15:45;21.50;39.30
11647;DHT22;5880;52.342;9.662;2022-07-29T07:18:13;21.50;39.30
11647;DHT22;5880;52.342;9.662;2022-07-29T07:20:40;21.60;39.20
11647;DHT22;5880;52.342;9.662;2022-07-29T07:23:06;21.70;39.40
11647;DHT22;5880;52.342;9.662;2022-07-29T07:25:32;21.70;39.20
11647;DHT22;5880;52.342;9.662;2022-07-29T07:27:58;21.80;39.10
11647;DHT22;5880;52.342;9.662;2022-07-29T07:30:25;21.90;39.00
11647;DHT22;5880;52.342;9.662;2022-07-29T07:32:50;21.90;39.00
11647;DHT22;5880;52.342;9.662;2022-07-29T07:35:16;22.00;39.00
11647;DHT22;5880;52.342;9.662;2022-07-29T07:37:42;22.00;38.90
11647;DHT22;5880;52.342;9.662;2022-07-29T07:40:09;22.10;38.70
11647;DHT22;5880;52.342;9.662;2022-07-29T07:42:37;22.10;38.70
11647;DHT22;5880;52.342;9.662;2022-07-29T07:45:04;22.10;39.30
11647;DHT22;5880;52.342;9.662;2022-07-29T07:47:31;22.10;38.50
11647;DHT22;5880;52.342;9.662;2022-07-29T07:49:57;22.10;38.50
11647;DHT22;5880;52.342;9.662;2022-07-29T07:52:23;22.20;38.70
11647;DHT22;5880;52.342;9.662;2022-07-29T07:54:49;22.20;38.70
11647;DHT22;5880;52.342;9.662;2022-07-29T07:57:15;22.20;38.50
11647;DHT22;5880;52.342;9.662;2022-07-29T07:59:41;22.10;38.50
11647;DHT22;5880;52.342;9.662;2022-07-29T08:02:08;22.20;38.30
11647;DHT22;5880;52.342;9.662;2022-07-29T08:04:34;22.20;38.20
11647;DHT22;5880;52.342;9.662;2022-07-29T08:07:01;22.20;38.30
11647;DHT22;5880;52.342;9.662;2022-07-29T08:09:28;22.20;38.30
11647;DHT22;5880;52.342;9.662;2022-07-29T08:11:55;22.20;38.30
11647;DHT22;5880;52.342;9.662;2022-07-29T08:14:22;22.20;38.20
11647;DHT22;5880;52.342;9.662;2022-07-29T08:16:47;22.20;38.30
11647;DHT22;5880;52.342;9.662;2022-07-29T08:19:13;22.20;38.30
11647;DHT22;5880;52.342;9.662;2022-07-29T08:21:39;22.20;38.20
11647;DHT22;5880;52.342;9.662;2022-07-29T08:24:05;22.20;38.20
11647;DHT22;5880;52.342;9.662;2022-07-29T08:26:50;22.20;38.20
11647;DHT22;5880;52.342;9.662;2022-07-29T08:29:16;22.20;38.20
11647;DHT22;5880;52.342;9.662;2022-07-29T08:31:42;22.20;38.30
11647;DHT22;5880;52.342;9.662;2022-07-29T08:34:08;22.20;38.40
11647;DHT22;5880;52.342;9.662;2022-07-29T08:36:34;22.20;38.50
11647;DHT22;5880;52.342;9.662;2022-07-29T08:39:01;22.30;38.60
11647;DHT22;5880;52.342;9.662;2022-07-29T08:41:27;22.20;38.60
11647;DHT22;5880;52.342;9.662;2022-07-29T08:43:53;22.20;38.70
11647;DHT22;5880;52.342;9.662;2022-07-29T08:46:20;22.20;38.70
11647;DHT22;5880;52.342;9.662;2022-07-29T08:48:47;22.30;38.80
11647;DHT22;5880;52.342;9.662;2022-07-29T08:51:15;22.30;38.70
11647;DHT22;5880;52.342;9.662;2022-07-29T08:53:44;22.40;38.70
11647;DHT22;5880;52.342;9.662;2022-07-29T08:56:17;22.40;38.90
11647;DHT22;5880;52.342;9.662;2022-07-29T08:58:47;22.40;38.90
11647;DHT22;5880;52.342;9.662;2022-07-29T09:01:17;22.50;38.80
11647;DHT22;5880;52.342;9.662;2022-07-29T09:03:46;22.50;38.90
11647;DHT22;5880;52.342;9.662;2022-07-29T09:06:17;22.50;38.80
11647;DHT22;5880;52.342;9.662;2022-07-29T09:08:45;22.60;38.90
11647;DHT22;5880;52.342;9.662;2022-07-29T09:11:11;22.60;38.70
11647;DHT22;5880;52.342;9.662;2022-07-29T09:13:39;22.70;38.70
11647;DHT22;5880;52.342;9.662;2022-07-29T09:16:05;22.70;38.60
11647;DHT22;5880;52.342;9.662;2022-07-29T09:21:05;22.80;38.60
11647;DHT22;5880;52.342;9.662;2022-07-29T09:24:13;22.80;38.50
11647;DHT22;5880;52.342;9.662;2022-07-29T09:26:44;22.90;38.40
11647;DHT22;5880;52.342;9.662;2022-07-29T09:29:13;22.90;38.40
11647;DHT22;5880;52.342;9.662;2022-07-29T09:31:46;22.90;38.40
11647;DHT22;5880;52.342;9.662;2022-07-29T09:34:16;22.90;38.30
11647;DHT22;5880;52.342;9.662;2022-07-29T09:36:48;23.00;38.40
11647;DHT22;5880;52.342;9.662;2022-07-29T09:39:26;23.00;38.40
11647;DHT22;5880;52.342;9.662;2022-07-29T09:41:55;23.00;38.50
11647;DHT22;5880;52.342;9.662;2022-07-29T09:44:25;23.10;38.60
11647;DHT22;5880;52.342;9.662;2022-07-29T09:46:59;23.10;38.30
11647;DHT22;5880;52.342;9.662;2022-07-29T09:49:50;23.20;38.30
11647;DHT22;5880;52.342;9.662;2022-07-29T09:52:17;23.20;38.30
11647;DHT22;5880;52.342;9.662;2022-07-29T09:54:43;23.20;38.20
11647;DHT22;5880;52.342;9.662;2022-07-29T09:57:26;23.40;38.30
11647;DHT22;5880;52.342;9.662;2022-07-29T10:00:00;23.30;38.50
11647;DHT22;5880;52.342;9.662;2022-07-29T10:02:32;23.40;38.20
11647;DHT22;5880;52.342;9.662;2022-07-29T10:05:00;23.40;38.00
11647;DHT22;5880;52.342;9.662;2022-07-29T10:07:44;23.40;38.00
11647;DHT22;5880;52.342;9.662;2022-07-29T10:10:09;23.50;38.10
11647;DHT22;5880;52.342;9.662;2022-07-29T10:15:16;23.60;38.20
11647;DHT22;5880;52.342;9.662;2022-07-29T10:17:44;23.60;38.10
11647;DHT22;5880;52.342;9.662;2022-07-29T10:20:10;23.70;38.10
11647;DHT22;5880;52.342;9.662;2022-07-29T10:22:36;23.80;38.10
11647;DHT22;5880;52.342;9.662;2022-07-29T10:25:03;23.80;38.10
11647;DHT22;5880;52.342;9.662;2022-07-29T10:27:28;23.80;38.10
11647;DHT22;5880;52.342;9.662;2022-07-29T10:29:54;23.90;38.10
11647;DHT22;5880;52.342;9.662;2022-07-29T10:41:53;24.00;37.20
11647;DHT22;5880;52.342;9.662;2022-07-29T10:44:27;24.10;37.60
11647;DHT22;5880;52.342;9.662;2022-07-29T10:46:54;24.10;37.50
11647;DHT22;5880;52.342;9.662;2022-07-29T10:49:22;24.10;37.80
11647;DHT22;5880;52.342;9.662;2022-07-29T10:51:56;24.20;37.90
11647;DHT22;5880;52.342;9.662;2022-07-29T10:54:37;24.20;38.00
11647;DHT22;5880;52.342;9.662;2022-07-29T10:57:16;24.20;38.10
11647;DHT22;5880;52.342;9.662;2022-07-29T11:05:17;24.30;37.80
11647;DHT22;5880;52.342;9.662;2022-07-29T11:10:38;24.30;37.80
11647;DHT22;5880;52.342;9.662;2022-07-29T11:13:05;24.30;37.70
11647;DHT22;5880;52.342;9.662;2022-07-29T11:15:54;24.30;37.60
11647;DHT22;5880;52.342;9.662;2022-07-29T11:18:21;24.30;37.50
11647;DHT22;5880;52.342;9.662;2022-07-29T11:20:48;24.40;37.70
11647;DHT22;5880;52.342;9.662;2022-07-29T11:23:32;24.50;37.80
11647;DHT22;5880;52.342;9.662;2022-07-29T11:28:53;24.40;37.80
11647;DHT22;5880;52.342;9.662;2022-07-29T11:31:35;24.40;37.80
11647;DHT22;5880;52.342;9.662;2022-07-29T11:34:26;24.40;37.90
11647;DHT22;5880;52.342;9.662;2022-07-29T11:39:33;24.50;37.90
11647;DHT22;5880;52.342;9.662;2022-07-29T11:44:59;24.50;37.90
11647;DHT22;5880;52.342;9.662;2022-07-29T11:47:31;24.50;37.80
11647;DHT22;5880;52.342;9.662;2022-07-29T11:50:00;24.60;38.00
11647;DHT22;5880;52.342;9.662;2022-07-29T11:52:35;24.60;38.00
11647;DHT22;5880;52.342;9.662;2022-07-29T11:55:09;24.60;38.20
11647;DHT22;5880;52.342;9.662;2022-07-29T11:57:37;24.60;38.00
11647;DHT22;5880;52.342;9.662;2022-07-29T12:00:10;24.60;38.10
11647;DHT22;5880;52.342;9.662;2022-07-29T12:02:42;24.70;38.20
11647;DHT22;5880;52.342;9.662;2022-07-29T12:05:09;24.70;38.20
11647;DHT22;5880;52.342;9.662;2022-07-29T12:07:39;24.70;38.10
11647;DHT22;5880;52.342;9.662;2022-07-29T12:10:06;24.80;38.00
11647;DHT22;5880;52.342;9.662;2022-07-29T12:12:33;24.80;37.90
11647;DHT22;5880;52.342;9.662;2022-07-29T12:15:17;24.80;37.90
11647;DHT22;5880;52.342;9.662;2022-07-29T12:17:46;24.90;38.00
11647;DHT22;5880;52.342;9.662;2022-07-29T12:20:13;24.90;38.10
11647;DHT22;5880;52.342;9.662;2022-07-29T12:22:40;24.90;38.30
11647;DHT22;5880;52.342;9.662;2022-07-29T12:25:11;25.00;38.50
11647;DHT22;5880;52.342;9.662;2022-07-29T12:27:41;25.00;38.30
11647;DHT22;5880;52.342;9.662;2022-07-29T12:30:11;25.10;38.20
11647;DHT22;5880;52.342;9.662;2022-07-29T12:32:40;25.20;38.00
11647;DHT22;5880;52.342;9.662;2022-07-29T12:35:18;25.20;38.10
11647;DHT22;5880;52.342;9.662;2022-07-29T12:37:45;25.30;37.80
11647;DHT22;5880;52.342;9.662;2022-07-29T12:40:15;25.30;38.60
11647;DHT22;5880;52.342;9.662;2022-07-29T12:43:05;25.40;37.90
11647;DHT22;5880;52.342;9.662;2022-07-29T12:45:32;25.50;37.60
11647;DHT22;5880;52.342;9.662;2022-07-29T12:47:58;25.50;37.80
11647;DHT22;5880;52.342;9.662;2022-07-29T12:50:24;25.60;37.70
11647;DHT22;5880;52.342;9.662;2022-07-29T12:52:50;25.60;37.60
11647;DHT22;5880;52.342;9.662;2022-07-29T12:55:31;25.70;37.60
11647;DHT22;5880;52.342;9.662;2022-07-29T12:58:08;25.70;37.80
11647;DHT22;5880;52.342;9.662;2022-07-29T13:00:34;25.80;37.20
11647;DHT22;5880;52.342;9.662;2022-07-29T13:03:00;25.90;37.20
11647;DHT22;5880;52.342;9.662;2022-07-29T13:05:41;25.90;37.20
11647;DHT22;5880;52.342;9.662;2022-07-29T13:08:15;25.90;36.80
11647;DHT22;5880;52.342;9.662;2022-07-29T13:10:43;26.00;37.40
11647;DHT22;5880;52.342;9.662;2022-07-29T13:13:10;26.00;37.30
11647;DHT22;5880;52.342;9.662;2022-07-29T13:15:38;26.10;37.50
11647;DHT22;5880;52.342;9.662;2022-07-29T13:18:34;26.10;37.30
11647;DHT22;5880;52.342;9.662;2022-07-29T13:21:14;26.20;37.40
11647;DHT22;5880;52.342;9.662;2022-07-29T13:23:41;26.20;36.60
11647;DHT22;5880;52.342;9.662;2022-07-29T13:26:08;26.30;37.00
11647;DHT22;5880;52.342;9.662;2022-07-29T13:28:41;26.30;36.90
11647;DHT22;5880;52.342;9.662;2022-07-29T13:31:07;26.30;36.70
11647;DHT22;5880;52.342;9.662;2022-07-29T13:33:33;26.40;36.70
11647;DHT22;5880;52.342;9.662;2022-07-29T13:35:58;26.40;36.30
11647;DHT22;5880;52.342;9.662;2022-07-29T13:38:24;26.50;35.90
11647;DHT22;5880;52.342;9.662;2022-07-29T13:40:49;26.50;35.50
11647;DHT22;5880;52.342;9.662;2022-07-29T13:43:15;26.60;36.00
11647;DHT22;5880;52.342;9.662;2022-07-29T13:45:41;26.80;36.10
11647;DHT22;5880;52.342;9.662;2022-07-29T13:48:07;26.90;35.90
11647;DHT22;5880;52.342;9.662;2022-07-29T13:50:32;27.00;36.00
11647;DHT22;5880;52.342;9.662;2022-07-29T13:52:58;27.20;35.40
11647;DHT22;5880;52.342;9.662;2022-07-29T13:55:24;27.30;35.40
11647;DHT22;5880;52.342;9.662;2022-07-29T13:57:50;27.40;35.40
11647;DHT22;5880;52.342;9.662;2022-07-29T14:00:16;27.50;34.50
11647;DHT22;5880;52.342;9.662;2022-07-29T14:02:42;27.70;34.20
11647;DHT22;5880;52.342;9.662;2022-07-29T14:05:08;27.80;34.00
11647;DHT22;5880;52.342;9.662;2022-07-29T14:07:36;27.90;33.30
11647;DHT22;5880;52.342;9.662;2022-07-29T14:10:04;28.00;33.70
11647;DHT22;5880;52.342;9.662;2022-07-29T14:12:30;28.10;33.50
11647;DHT22;5880;52.342;9.662;2022-07-29T14:14:56;28.10;33.20
11647;DHT22;5880;52.342;9.662;2022-07-29T14:17:21;28.20;32.20
11647;DHT22;5880;52.342;9.662;2022-07-29T14:19:48;28.30;31.90
11647;DHT22;5880;52.342;9.662;2022-07-29T14:22:14;28.30;32.40
11647;DHT22;5880;52.342;9.662;2022-07-29T14:24:39;28.30;32.40
11647;DHT22;5880;52.342;9.662;2022-07-29T14:27:07;28.40;32.40
11647;DHT22;5880;52.342;9.662;2022-07-29T14:29:33;28.30;32.30
11647;DHT22;5880;52.342;9.662;2022-07-29T14:31:59;28.40;32.60
11647;DHT22;5880;52.342;9.662;2022-07-29T14:34:24;28.40;32.20
11647;DHT22;5880;52.342;9.662;2022-07-29T14:36:50;28.40;31.90
11647;DHT22;5880;52.342;9.662;2022-07-29T14:39:16;28.50;32.10
11647;DHT22;5880;52.342;9.662;2022-07-29T14:41:42;28.50;31.50
11647;DHT22;5880;52.342;9.662;2022-07-29T14:44:08;28.50;31.70
11647;DHT22;5880;52.342;9.662;2022-07-29T14:46:34;28.50;31.70
11647;DHT22;5880;52.342;9.662;2022-07-29T14:49:00;28.50;31.20
11647;DHT22;5880;52.342;9.662;2022-07-29T14:51:26;28.50;31.40
11647;DHT22;5880;52.342;9.662;2022-07-29T14:53:51;28.50;31.20
11647;DHT22;5880;52.342;9.662;2022-07-29T14:56:17;28.40;30.80
11647;DHT22;5880;52.342;9.662;2022-07-29T14:58:43;28.50;30.60
11647;DHT22;5880;52.342;9.662;2022-07-29T15:01:08;28.50;30.40
11647;DHT22;5880;52.342;9.662;2022-07-29T15:03:34;28.50;30.80
11647;DHT22;5880;52.342;9.662;2022-07-29T15:06:00;28.50;31.60
11647;DHT22;5880;52.342;9.662;2022-07-29T15:08:25;28.50;30.90
11647;DHT22;5880;52.342;9.662;2022-07-29T15:10:53;28.60;30.80
11647;DHT22;5880;52.342;9.662;2022-07-29T15:13:19;28.60;30.60
11647;DHT22;5880;52.342;9.662;2022-07-29T15:15:44;28.60;30.70
11647;DHT22;5880;52.342;9.662;2022-07-29T15:18:10;28.60;30.20
11647;DHT22;5880;52.342;9.662;2022-07-29T15:20:36;28.60;30.20
11647;DHT22;5880;52.342;9.662;2022-07-29T15:23:02;28.60;30.10
11647;DHT22;5880;52.342;9.662;2022-07-29T15:25:28;28.70;30.60
11647;DHT22;5880;52.342;9.662;2022-07-29T15:27:54;28.50;30.00
11647;DHT22;5880;52.342;9.662;2022-07-29T15:30:19;28.60;30.10
11647;DHT22;5880;52.342;9.662;2022-07-29T15:32:45;28.50;29.90
11647;DHT22;5880;52.342;9.662;2022-07-29T15:35:11;28.50;29.70
11647;DHT22;5880;52.342;9.662;2022-07-29T15:37:40;28.50;29.70
11647;DHT22;5880;52.342;9.662;2022-07-29T15:40:06;28.60;29.10
11647;DHT22;5880;52.342;9.662;2022-07-29T15:42:32;28.50;28.90
11647;DHT22;5880;52.342;9.662;2022-07-29T15:45:00;28.50;29.70
11647;DHT22;5880;52.342;9.662;2022-07-29T15:47:28;28.50;29.20
11647;DHT22;5880;52.342;9.662;2022-07-29T15:49:54;28.50;28.90
11647;DHT22;5880;52.342;9.662;2022-07-29T15:52:21;28.50;29.00
11647;DHT22;5880;52.342;9.662;2022-07-29T15:54:46;28.40;29.00
11647;DHT22;5880;52.342;9.662;2022-07-29T15:57:12;28.40;29.00
11647;DHT22;5880;52.342;9.662;2022-07-29T15:59:38;28.50;28.60
11647;DHT22;5880;52.342;9.662;2022-07-29T16:02:04;28.40;28.70
11647;DHT22;5880;52.342;9.662;2022-07-29T16:04:30;28.40;28.70
11647;DHT22;5880;52.342;9.662;2022-07-29T16:06:56;28.40;28.80
11647;DHT22;5880;52.342;9.662;2022-07-29T16:09:22;28.40;28.70
11647;DHT22;5880;52.342;9.662;2022-07-29T16:11:48;28.40;28.40
11647;DHT22;5880;52.342;9.662;2022-07-29T16:14:17;28.40;28.50
11647;DHT22;5880;52.342;9.662;2022-07-29T16:16:44;28.40;28.40
11647;DHT22;5880;52.342;9.662;2022-07-29T16:19:10;28.40;28.20
11647;DHT22;5880;52.342;9.662;2022-07-29T16:21:37;28.40;28.20
11647;DHT22;5880;52.342;9.662;2022-07-29T16:24:04;28.50;28.30
11647;DHT22;5880;52.342;9.662;2022-07-29T16:26:31;28.40;28.10
11647;DHT22;5880;52.342;9.662;2022-07-29T16:28:58;28.40;28.20
11647;DHT22;5880;52.342;9.662;2022-07-29T16:31:24;28.40;27.90
11647;DHT22;5880;52.342;9.662;2022-07-29T16:33:53;28.40;28.00